Aeroporto :
LOGIN :

Iscrizione | Disclaimer

   EN    FR    IT 

 










Sommario :    VFR   VFR Marginale   IFR   IFR Intensivo   IFR Molto Intensivo
Visibilità : 
Base nubi : 
>= 8 km
>= 3000ft
5 / 8 km
1000 / 3000 ft
1500m / 5 km
500 / 1000 ft
800 / 1500m
200 / 500 ft
< 800m
< 200 ft
Simboli :   Temporali  Nebbia  Neve Forte  Precipitazioni Forti  Vento > 20 kt
SIGMETs :   Varie  Temporali  Ghiacco  Turbolenza  Onda orograficha  Ceneri Vulcaniche






- Altitudine del aeroporto : 574 ft
- Codice IATA : TEQ


LTBU - Corlu

ULTIMO METAR :
  • 221450Z 23006KT CAVOK 05/01 Q1025 RMK RWY22 23008KT

METARs OBSOLETI :
  • 221420Z 22007KT CAVOK 06/01 Q1026 RMK RWY22 24005KT 200V280
  • 221350Z 27007KT CAVOK 07/M01 Q1026 RMK RWY22 29007KT
  • 221320Z 26010KT CAVOK 07/M01 Q1027 RMK RWY22 29011KT
  • 221250Z 24008KT CAVOK 07/00 Q1027 RMK RWY22 26007KT 230V300
  • 221220Z 23008KT 200V260 CAVOK 08/00 Q1027 RMK RWY22 25007KT

TAF TAF LTBU
Valido dal 22 a 12 ore il 23 a 12 ore UTC


221040Z 2212/2312 25005KT CAVOK
BECMG 2222/2302 32010KT SCT012
PROB40 2301/2304 3200 BR BKN006
BECMG 2306/2309 35015G25KT
BECMG 2309/2312 CAVOK



MetMap, La meteo Aeronautica in un colpo d'occhio ! - Copyright ORBIFLY Dicembre 2007 - Disclaimer

ORBIFLY MET'MAP TEAM :

Programmazione e sviluppo : Alexandra Zaïnal
Concezione : Baudouin d'Aumeries
Aiuto per la programmazione : Marc-Olivier Méhu
Supporto tecnico e logistico : Manuel Goepfert
Aiuto per la traduzione : Arnaldo La Scala

Contatto : metmap@orbifly.com




FONTI E CREDITI :

   NOAA